Terminal Aerodrome Forecast
Issued by NWS

Home | Current Version | Previous Version | Text Only | Print | Product List | Glossary On
Versions: 1 2 3 4 5 6 7 8 9 10 11 12 13 14 15 16 17 18 19 20 21 22 23 24 25
000
FTUS41 KPBZ 191720
TAFFKL
TAF
KFKL 191720Z 1918/2018 VRB05KT P6SM SCT050
     FM192300 03003KT P6SM SCT200
     FM200900 09003KT 3SM BR SCT100
     FM201300 00000KT P6SM SCT200
      AMD LTD TO CLD VIS AND WIND=

USA.gov is the U.S. government's official web portal to all federal, state and local government web resources and services.